TRA71R LGIR-EHAM
Flight info
| Callsign | TRA71R |
|---|---|
| Flight time | 3h 34m |
| Altitude | 34000 |
| Route | EPALO1V EPALO M749 DIRMI UL613 KOR DCT TUMBO/N0445F360 DCT OVVER DCT RODON DCT NERRA DCT SIRMI DCT SIMBA/N0445F380 DCT GASKA DCT MAPOX/N0442F360 DCT NORKU |
| Aircraft | A21N/M-SBDE2E3FGHIJ1J5M1P2RWXYZ/LB1D1G1 |
Departure
| Time | 2026-04-28 18:57 |
|---|---|
| Airport | Heraklion International Nikos Kazantzakis Airport (LGIR) |
Arrival
| Time | 2026-04-28 22:32 |
|---|---|
| Airport | Amsterdam Airport Schiphol (EHAM) |
| Time | Latitude | Longitude | Altitude | Speed | Heading |
|---|---|---|---|---|---|
| 2026-04-28 18:08 | 35.33819 | 25.17418 | 96 ft | 0 kts | 316° |
| 2026-04-28 18:52 | 35.33826 | 25.17410 | 96 ft | 2 kts | 316° |
| 2026-04-28 18:52 | 35.33843 | 25.17389 | 99 ft | 4 kts | 320° |
| 2026-04-28 18:53 | 35.33880 | 25.17377 | 96 ft | 7 kts | 3° |
| 2026-04-28 18:53 | 35.33915 | 25.17418 | 97 ft | 9 kts | 82° |
| 2026-04-28 18:53 | 35.33911 | 25.17499 | 99 ft | 10 kts | 95° |
| 2026-04-28 18:53 | 35.33905 | 25.17596 | 96 ft | 12 kts | 95° |
| 2026-04-28 18:54 | 35.33897 | 25.17708 | 100 ft | 14 kts | 95° |
| 2026-04-28 18:54 | 35.33889 | 25.17833 | 97 ft | 15 kts | 95° |
| 2026-04-28 18:54 | 35.33879 | 25.17969 | 98 ft | 17 kts | 94° |
| 2026-04-28 18:54 | 35.33869 | 25.18115 | 100 ft | 18 kts | 95° |
| 2026-04-28 18:55 | 35.33858 | 25.18271 | 98 ft | 19 kts | 95° |
| 2026-04-28 18:55 | 35.33851 | 25.18381 | 96 ft | 19 kts | 95° |
| 2026-04-28 18:55 | 35.33836 | 25.18604 | 95 ft | 21 kts | 95° |
| 2026-04-28 18:55 | 35.33823 | 25.18781 | 95 ft | 19 kts | 95° |
| 2026-04-28 18:56 | 35.33816 | 25.18891 | 95 ft | 12 kts | 94° |
| 2026-04-28 18:56 | 35.33853 | 25.18989 | 94 ft | 13 kts | 54° |
| 2026-04-28 18:56 | 35.33906 | 25.19010 | 99 ft | 11 kts | 285° |
| 2026-04-28 18:56 | 35.33910 | 25.18974 | 96 ft | 2 kts | 276° |
| 2026-04-28 18:57 | 35.33914 | 25.18929 | 94 ft | 18 kts | 276° |
| 2026-04-28 18:57 | 35.33947 | 25.18426 | 96 ft | 97 kts | 275° |
| 2026-04-28 18:57 | 35.34024 | 25.17337 | 101 ft | 156 kts | 276° |
| 2026-04-28 18:57 | 35.34103 | 25.16013 | 717 ft | 156 kts | 274° |
| 2026-04-28 18:58 | 35.34400 | 25.14743 | 1338 ft | 163 kts | 305° |
| 2026-04-28 18:58 | 35.35370 | 25.13871 | 1704 ft | 190 kts | 338° |
| 2026-04-28 18:58 | 35.36695 | 25.13435 | 2272 ft | 208 kts | 343° |
| 2026-04-28 18:58 | 35.38177 | 25.12939 | 2716 ft | 232 kts | 344° |
| 2026-04-28 18:59 | 35.39774 | 25.12381 | 3422 ft | 244 kts | 343° |
| 2026-04-28 18:59 | 35.41422 | 25.11798 | 4242 ft | 249 kts | 344° |
| 2026-04-28 18:59 | 35.43100 | 25.11201 | 5104 ft | 253 kts | 344° |
| 2026-04-28 18:59 | 35.44798 | 25.10597 | 5965 ft | 255 kts | 344° |
| 2026-04-28 19:00 | 35.46509 | 25.09987 | 6782 ft | 258 kts | 345° |
| 2026-04-28 19:00 | 35.48245 | 25.09368 | 7600 ft | 261 kts | 344° |
| 2026-04-28 19:00 | 35.49998 | 25.08743 | 8400 ft | 265 kts | 344° |
| 2026-04-28 19:00 | 35.51785 | 25.08105 | 9209 ft | 270 kts | 344° |
| 2026-04-28 19:01 | 35.53604 | 25.07454 | 10023 ft | 274 kts | 343° |
| 2026-04-28 19:01 | 35.55484 | 25.06782 | 10498 ft | 291 kts | 343° |
| 2026-04-28 19:01 | 35.57475 | 25.06070 | 10808 ft | 312 kts | 343° |
| 2026-04-28 19:01 | 35.59608 | 25.05307 | 11306 ft | 325 kts | 343° |
| 2026-04-28 19:02 | 35.61796 | 25.04524 | 12015 ft | 330 kts | 343° |
| 2026-04-28 19:02 | 35.64015 | 25.03731 | 12765 ft | 334 kts | 343° |
| 2026-04-28 19:02 | 35.66259 | 25.02927 | 13518 ft | 339 kts | 342° |
| 2026-04-28 19:02 | 35.68535 | 25.02111 | 14213 ft | 342 kts | 342° |
| 2026-04-28 19:03 | 35.70836 | 25.01285 | 14904 ft | 346 kts | 342° |
| 2026-04-28 19:03 | 35.73112 | 25.00309 | 15601 ft | 347 kts | 338° |
| 2026-04-28 19:03 | 35.75378 | 24.99244 | 16319 ft | 350 kts | 338° |
| 2026-04-28 19:03 | 35.77655 | 24.98169 | 16989 ft | 352 kts | 338° |
| 2026-04-28 19:04 | 35.79954 | 24.97084 | 17661 ft | 355 kts | 338° |
| 2026-04-28 19:04 | 35.82268 | 24.95993 | 18327 ft | 358 kts | 338° |
| 2026-04-28 19:04 | 35.84600 | 24.94894 | 18909 ft | 360 kts | 338° |
| 2026-04-28 19:04 | 35.86951 | 24.93788 | 19475 ft | 363 kts | 338° |
| 2026-04-28 19:05 | 35.89316 | 24.92671 | 20035 ft | 365 kts | 338° |
| 2026-04-28 19:05 | 35.91698 | 24.91548 | 20601 ft | 368 kts | 338° |
| 2026-04-28 19:05 | 35.94092 | 24.90418 | 21155 ft | 370 kts | 338° |
| 2026-04-28 19:05 | 35.96511 | 24.89277 | 21723 ft | 373 kts | 338° |
| 2026-04-28 19:06 | 35.98934 | 24.88132 | 22275 ft | 375 kts | 338° |
| 2026-04-28 19:06 | 36.00548 | 24.87369 | 22639 ft | 376 kts | 338° |
| 2026-04-28 19:06 | 36.03838 | 24.85807 | 23364 ft | 380 kts | 337° |
| 2026-04-28 19:06 | 36.06197 | 24.84331 | 23838 ft | 381 kts | 326° |
| 2026-04-28 19:07 | 36.08316 | 24.82351 | 24274 ft | 383 kts | 321° |
| 2026-04-28 19:07 | 36.10386 | 24.80263 | 24705 ft | 386 kts | 321° |
| 2026-04-28 19:07 | 36.12468 | 24.78164 | 25129 ft | 388 kts | 321° |
| 2026-04-28 19:07 | 36.14578 | 24.76060 | 25548 ft | 390 kts | 321° |
| 2026-04-28 19:08 | 36.16703 | 24.73947 | 25959 ft | 393 kts | 321° |
| 2026-04-28 19:08 | 36.18833 | 24.71824 | 26353 ft | 395 kts | 321° |
| 2026-04-28 19:08 | 36.20955 | 24.69719 | 26748 ft | 397 kts | 321° |
| 2026-04-28 19:08 | 36.23116 | 24.67575 | 27131 ft | 399 kts | 321° |
| 2026-04-28 19:09 | 36.25294 | 24.65418 | 27510 ft | 402 kts | 321° |
| 2026-04-28 19:09 | 36.27479 | 24.63247 | 27866 ft | 404 kts | 321° |
| 2026-04-28 19:09 | 36.29673 | 24.61061 | 28217 ft | 406 kts | 321° |
| 2026-04-28 19:09 | 36.31885 | 24.58857 | 28562 ft | 408 kts | 321° |
| 2026-04-28 19:10 | 36.34104 | 24.56646 | 28902 ft | 411 kts | 321° |
| 2026-04-28 19:10 | 36.36337 | 24.54414 | 29240 ft | 413 kts | 321° |
| 2026-04-28 19:10 | 36.38577 | 24.52171 | 29570 ft | 415 kts | 321° |
| 2026-04-28 19:10 | 36.40830 | 24.49918 | 29916 ft | 417 kts | 321° |
| 2026-04-28 19:11 | 36.43097 | 24.47649 | 30218 ft | 419 kts | 321° |
| 2026-04-28 19:11 | 36.45369 | 24.45372 | 30509 ft | 420 kts | 321° |
| 2026-04-28 19:11 | 36.47634 | 24.43088 | 30886 ft | 419 kts | 321° |
| 2026-04-28 19:11 | 36.49903 | 24.40819 | 31273 ft | 418 kts | 321° |
| 2026-04-28 19:12 | 36.52163 | 24.38547 | 31637 ft | 417 kts | 321° |
| 2026-04-28 19:12 | 36.54414 | 24.36288 | 31971 ft | 417 kts | 321° |
| 2026-04-28 19:12 | 36.56669 | 24.34028 | 32305 ft | 416 kts | 321° |
| 2026-04-28 19:12 | 36.58922 | 24.31765 | 32664 ft | 415 kts | 321° |
| 2026-04-28 19:13 | 36.61157 | 24.29510 | 33006 ft | 414 kts | 320° |
| 2026-04-28 19:13 | 36.63395 | 24.27254 | 33337 ft | 413 kts | 320° |
| 2026-04-28 19:13 | 36.65613 | 24.25005 | 33659 ft | 412 kts | 320° |
| 2026-04-28 19:13 | 36.67831 | 24.22759 | 33963 ft | 410 kts | 320° |
| 2026-04-28 19:14 | 36.70057 | 24.20517 | 34102 ft | 412 kts | 320° |
| 2026-04-28 19:14 | 36.72280 | 24.18273 | 34108 ft | 411 kts | 320° |
| 2026-04-28 19:14 | 36.76709 | 24.13757 | 34084 ft | 411 kts | 320° |
| 2026-04-28 19:15 | 36.80385 | 24.10005 | 34079 ft | 411 kts | 320° |
| 2026-04-28 19:15 | 36.84107 | 24.06243 | 34077 ft | 412 kts | 320° |
| 2026-04-28 19:16 | 36.89274 | 24.00965 | 34079 ft | 413 kts | 320° |
| 2026-04-28 19:16 | 36.93722 | 23.96436 | 34084 ft | 413 kts | 320° |
| 2026-04-28 19:17 | 36.98188 | 23.91920 | 34079 ft | 413 kts | 320° |
| 2026-04-28 19:17 | 37.02645 | 23.87386 | 34085 ft | 413 kts | 320° |
| 2026-04-28 19:18 | 37.07102 | 23.82841 | 34085 ft | 413 kts | 320° |
| 2026-04-28 19:18 | 37.11544 | 23.78271 | 34093 ft | 413 kts | 320° |
| 2026-04-28 19:19 | 37.16011 | 23.73718 | 34080 ft | 414 kts | 320° |
| 2026-04-28 19:19 | 37.20476 | 23.69139 | 34087 ft | 415 kts | 320° |
| 2026-04-28 19:20 | 37.24908 | 23.64586 | 34088 ft | 415 kts | 320° |
| 2026-04-28 19:20 | 37.29365 | 23.59986 | 34090 ft | 415 kts | 320° |
| 2026-04-28 19:21 | 37.33821 | 23.55376 | 34092 ft | 415 kts | 320° |
| 2026-04-28 19:21 | 37.38284 | 23.50775 | 34092 ft | 415 kts | 320° |
| 2026-04-28 19:22 | 37.42027 | 23.46906 | 34095 ft | 417 kts | 320° |
| 2026-04-28 19:22 | 37.47217 | 23.41515 | 34086 ft | 417 kts | 320° |
| 2026-04-28 19:23 | 37.51697 | 23.36861 | 34094 ft | 418 kts | 320° |
| 2026-04-28 19:23 | 37.56184 | 23.32189 | 34095 ft | 418 kts | 320° |
| 2026-04-28 19:24 | 37.60668 | 23.27528 | 34098 ft | 418 kts | 320° |
| 2026-04-28 19:24 | 37.65152 | 23.22851 | 34097 ft | 418 kts | 320° |
| 2026-04-28 19:25 | 37.69628 | 23.18154 | 34100 ft | 419 kts | 320° |
| 2026-04-28 19:25 | 37.74121 | 23.13475 | 34099 ft | 419 kts | 320° |
| 2026-04-28 19:26 | 37.78607 | 23.08779 | 34092 ft | 419 kts | 320° |
| 2026-04-28 19:26 | 37.83096 | 23.04065 | 34098 ft | 419 kts | 320° |
| 2026-04-28 19:27 | 37.87576 | 22.99333 | 34093 ft | 420 kts | 320° |
| 2026-04-28 19:27 | 37.92066 | 22.94608 | 34093 ft | 420 kts | 320° |
| 2026-04-28 19:28 | 37.96476 | 22.89770 | 34096 ft | 420 kts | 318° |
| 2026-04-28 19:28 | 38.00878 | 22.84895 | 34095 ft | 420 kts | 319° |
| 2026-04-28 19:29 | 38.04537 | 22.80847 | 34098 ft | 420 kts | 319° |
| 2026-04-28 19:29 | 38.09682 | 22.75126 | 34095 ft | 421 kts | 319° |
| 2026-04-28 19:30 | 38.14050 | 22.70255 | 34102 ft | 421 kts | 318° |
| 2026-04-28 19:30 | 38.18440 | 22.65332 | 34104 ft | 421 kts | 318° |
| 2026-04-28 19:31 | 38.22841 | 22.60411 | 34103 ft | 421 kts | 318° |
| 2026-04-28 19:31 | 38.27230 | 22.55476 | 34107 ft | 421 kts | 318° |
| 2026-04-28 19:32 | 38.31620 | 22.50542 | 34111 ft | 420 kts | 319° |
| 2026-04-28 19:32 | 38.36023 | 22.45648 | 34106 ft | 420 kts | 319° |
| 2026-04-28 19:33 | 38.40426 | 22.40721 | 34112 ft | 421 kts | 318° |
| 2026-04-28 19:33 | 38.44822 | 22.35772 | 34114 ft | 422 kts | 318° |
| 2026-04-28 19:34 | 38.49218 | 22.30819 | 34119 ft | 422 kts | 318° |
| 2026-04-28 19:34 | 38.53607 | 22.25841 | 34117 ft | 422 kts | 318° |
| 2026-04-28 19:35 | 38.58008 | 22.20874 | 34122 ft | 422 kts | 318° |
| 2026-04-28 19:35 | 38.62398 | 22.15900 | 34123 ft | 422 kts | 318° |
| 2026-04-28 19:36 | 38.66782 | 22.10921 | 34122 ft | 422 kts | 318° |
| 2026-04-28 19:36 | 38.71172 | 22.05924 | 34129 ft | 422 kts | 318° |
| 2026-04-28 19:37 | 38.74819 | 22.01763 | 34126 ft | 422 kts | 318° |
| 2026-04-28 19:37 | 38.79915 | 21.95945 | 34101 ft | 422 kts | 317° |
| 2026-04-28 19:38 | 38.84315 | 21.90882 | 34118 ft | 422 kts | 317° |
| 2026-04-28 19:38 | 38.88696 | 21.85857 | 34124 ft | 422 kts | 317° |
| 2026-04-28 19:39 | 38.93045 | 21.80874 | 34126 ft | 422 kts | 317° |
| 2026-04-28 19:39 | 38.97431 | 21.75858 | 34125 ft | 422 kts | 317° |
| 2026-04-28 19:40 | 39.01802 | 21.70813 | 34126 ft | 422 kts | 317° |
| 2026-04-28 19:40 | 39.06174 | 21.65774 | 34122 ft | 422 kts | 317° |
| 2026-04-28 19:41 | 39.10537 | 21.60716 | 34125 ft | 422 kts | 317° |
| 2026-04-28 19:41 | 39.14891 | 21.55646 | 34116 ft | 422 kts | 317° |
| 2026-04-28 19:42 | 39.19230 | 21.50568 | 34123 ft | 421 kts | 317° |
| 2026-04-28 19:42 | 39.22875 | 21.46333 | 34121 ft | 421 kts | 317° |
| 2026-04-28 19:43 | 39.27955 | 21.40487 | 34117 ft | 421 kts | 317° |
| 2026-04-28 19:43 | 39.32314 | 21.35425 | 34120 ft | 421 kts | 317° |
| 2026-04-28 19:44 | 39.36658 | 21.30355 | 34122 ft | 420 kts | 317° |
| 2026-04-28 19:44 | 39.40980 | 21.25297 | 34120 ft | 419 kts | 317° |
| 2026-04-28 19:45 | 39.45305 | 21.20237 | 34127 ft | 419 kts | 317° |
| 2026-04-28 19:45 | 39.49618 | 21.15169 | 34129 ft | 419 kts | 317° |
| 2026-04-28 19:46 | 39.53940 | 21.10091 | 34133 ft | 419 kts | 317° |
| 2026-04-28 19:46 | 39.58259 | 21.05003 | 34137 ft | 419 kts | 316° |
| 2026-04-28 19:47 | 39.62551 | 20.99885 | 34145 ft | 419 kts | 316° |
| 2026-04-28 19:47 | 39.66837 | 20.94786 | 34141 ft | 418 kts | 316° |
| 2026-04-28 19:48 | 39.71130 | 20.89694 | 34142 ft | 418 kts | 316° |
| 2026-04-28 19:48 | 39.75435 | 20.84622 | 34142 ft | 418 kts | 317° |
| 2026-04-28 19:49 | 39.79699 | 20.79547 | 34135 ft | 418 kts | 316° |
| 2026-04-28 19:49 | 39.83990 | 20.74406 | 34137 ft | 420 kts | 316° |
| 2026-04-28 19:50 | 39.90455 | 20.66721 | 34131 ft | 419 kts | 317° |
| 2026-04-28 19:51 | 39.94754 | 20.61627 | 34109 ft | 417 kts | 316° |
| 2026-04-28 19:51 | 39.99029 | 20.56509 | 34096 ft | 417 kts | 316° |
| 2026-04-28 19:52 | 40.03297 | 20.51383 | 34096 ft | 417 kts | 316° |
| 2026-04-28 19:52 | 40.07657 | 20.46371 | 34075 ft | 418 kts | 321° |
| 2026-04-28 19:53 | 40.12343 | 20.41845 | 34091 ft | 419 kts | 322° |
| 2026-04-28 19:53 | 40.17037 | 20.37327 | 34098 ft | 418 kts | 322° |
| 2026-04-28 19:54 | 40.21706 | 20.32813 | 34084 ft | 417 kts | 322° |
| 2026-04-28 19:54 | 40.26353 | 20.28268 | 34087 ft | 417 kts | 322° |
| 2026-04-28 19:55 | 40.31017 | 20.23743 | 34092 ft | 417 kts | 322° |
| 2026-04-28 19:55 | 40.35676 | 20.19231 | 34089 ft | 417 kts | 322° |
| 2026-04-28 19:56 | 40.40331 | 20.14684 | 34086 ft | 417 kts | 322° |
| 2026-04-28 19:56 | 40.44979 | 20.10148 | 34083 ft | 416 kts | 322° |
| 2026-04-28 19:57 | 40.49628 | 20.05630 | 34081 ft | 416 kts | 322° |
| 2026-04-28 19:57 | 40.54301 | 20.01128 | 34079 ft | 416 kts | 322° |
| 2026-04-28 19:58 | 40.58935 | 19.96593 | 34084 ft | 416 kts | 322° |
| 2026-04-28 19:58 | 40.63580 | 19.92045 | 34079 ft | 416 kts | 322° |
| 2026-04-28 19:59 | 40.68200 | 19.87470 | 34083 ft | 414 kts | 321° |
| 2026-04-28 19:59 | 40.72797 | 19.82914 | 34078 ft | 414 kts | 322° |
| 2026-04-28 20:00 | 40.77405 | 19.78369 | 34077 ft | 414 kts | 321° |
| 2026-04-28 20:00 | 40.81977 | 19.73845 | 34079 ft | 413 kts | 321° |
| 2026-04-28 20:01 | 40.86583 | 19.69282 | 34079 ft | 414 kts | 321° |
| 2026-04-28 20:01 | 40.91216 | 19.64690 | 34087 ft | 414 kts | 322° |
| 2026-04-28 20:02 | 40.95769 | 19.60167 | 34078 ft | 412 kts | 321° |
| 2026-04-28 20:02 | 41.00349 | 19.55611 | 34077 ft | 412 kts | 322° |
| 2026-04-28 20:03 | 41.04944 | 19.51066 | 34081 ft | 412 kts | 322° |
| 2026-04-28 20:03 | 41.08753 | 19.47286 | 34082 ft | 412 kts | 322° |
| 2026-04-28 20:04 | 41.13338 | 19.42721 | 34081 ft | 412 kts | 321° |
| 2026-04-28 20:04 | 41.17911 | 19.38152 | 34083 ft | 412 kts | 321° |
| 2026-04-28 20:05 | 41.22477 | 19.33556 | 34083 ft | 411 kts | 321° |
| 2026-04-28 20:05 | 41.27043 | 19.28960 | 34085 ft | 412 kts | 321° |
| 2026-04-28 20:06 | 41.31609 | 19.24364 | 34084 ft | 412 kts | 321° |
| 2026-04-28 20:06 | 41.36172 | 19.19770 | 34082 ft | 412 kts | 321° |
| 2026-04-28 20:07 | 41.40724 | 19.15136 | 34093 ft | 411 kts | 321° |
| 2026-04-28 20:07 | 41.45261 | 19.10519 | 34085 ft | 411 kts | 321° |
| 2026-04-28 20:08 | 41.49777 | 19.05840 | 34088 ft | 411 kts | 320° |
| 2026-04-28 20:08 | 41.54268 | 19.01106 | 34089 ft | 411 kts | 320° |
| 2026-04-28 20:09 | 41.59026 | 18.96855 | 34087 ft | 413 kts | 328° |
| 2026-04-28 20:09 | 41.63995 | 18.93002 | 34085 ft | 413 kts | 328° |
| 2026-04-28 20:10 | 41.68940 | 18.89122 | 34088 ft | 411 kts | 328° |
| 2026-04-28 20:10 | 41.73875 | 18.85244 | 34087 ft | 411 kts | 328° |
| 2026-04-28 20:11 | 41.78807 | 18.81364 | 34086 ft | 411 kts | 328° |
| 2026-04-28 20:11 | 41.83736 | 18.77468 | 34079 ft | 411 kts | 327° |
| 2026-04-28 20:12 | 41.88674 | 18.73599 | 34096 ft | 411 kts | 328° |
| 2026-04-28 20:12 | 41.93612 | 18.69733 | 34082 ft | 411 kts | 327° |
| 2026-04-28 20:13 | 41.98531 | 18.65826 | 34081 ft | 410 kts | 327° |
| 2026-04-28 20:13 | 42.03447 | 18.61926 | 34081 ft | 411 kts | 327° |
| 2026-04-28 20:14 | 42.08363 | 18.58010 | 34077 ft | 410 kts | 327° |
| 2026-04-28 20:14 | 42.13271 | 18.54089 | 34081 ft | 409 kts | 327° |
| 2026-04-28 20:15 | 42.18167 | 18.50173 | 34068 ft | 409 kts | 327° |
| 2026-04-28 20:15 | 42.23024 | 18.46279 | 34075 ft | 409 kts | 327° |
| 2026-04-28 20:16 | 42.27916 | 18.42355 | 34062 ft | 409 kts | 327° |
| 2026-04-28 20:16 | 42.32811 | 18.38430 | 34071 ft | 409 kts | 327° |
| 2026-04-28 20:17 | 42.37705 | 18.34482 | 34423 ft | 409 kts | 327° |
| 2026-04-28 20:17 | 42.40146 | 18.32508 | 34671 ft | 409 kts | 326° |
| 2026-04-28 20:17 | 42.42580 | 18.30514 | 34884 ft | 410 kts | 326° |
| 2026-04-28 20:17 | 42.45024 | 18.28516 | 35078 ft | 410 kts | 326° |
| 2026-04-28 20:18 | 42.47477 | 18.26523 | 35265 ft | 411 kts | 326° |
| 2026-04-28 20:18 | 42.49103 | 18.25206 | 35382 ft | 412 kts | 326° |
| 2026-04-28 20:18 | 42.52393 | 18.22540 | 35611 ft | 413 kts | 326° |
| 2026-04-28 20:18 | 42.54860 | 18.20547 | 35790 ft | 413 kts | 327° |
| 2026-04-28 20:19 | 42.57342 | 18.18567 | 35983 ft | 413 kts | 326° |
| 2026-04-28 20:19 | 42.59815 | 18.16578 | 36109 ft | 414 kts | 326° |
| 2026-04-28 20:19 | 42.62286 | 18.14576 | 36115 ft | 413 kts | 326° |
| 2026-04-28 20:20 | 42.67216 | 18.10577 | 36085 ft | 412 kts | 326° |
| 2026-04-28 20:20 | 42.72131 | 18.06568 | 36086 ft | 412 kts | 326° |
| 2026-04-28 20:21 | 42.77048 | 18.02548 | 36083 ft | 412 kts | 326° |
| 2026-04-28 20:21 | 42.81959 | 17.98533 | 36090 ft | 411 kts | 326° |
| 2026-04-28 20:22 | 42.86843 | 17.94519 | 36073 ft | 410 kts | 326° |
| 2026-04-28 20:22 | 42.91731 | 17.90497 | 36085 ft | 410 kts | 326° |
| 2026-04-28 20:23 | 42.96623 | 17.86471 | 36074 ft | 410 kts | 326° |
| 2026-04-28 20:23 | 43.01502 | 17.82448 | 36085 ft | 410 kts | 326° |
| 2026-04-28 20:24 | 43.06387 | 17.78419 | 36089 ft | 410 kts | 326° |
| 2026-04-28 20:24 | 43.11261 | 17.74375 | 36080 ft | 409 kts | 326° |
| 2026-04-28 20:25 | 43.16091 | 17.70342 | 36083 ft | 409 kts | 326° |
| 2026-04-28 20:25 | 43.20945 | 17.66284 | 36082 ft | 409 kts | 326° |
| 2026-04-28 20:26 | 43.25825 | 17.62253 | 36097 ft | 409 kts | 326° |
| 2026-04-28 20:26 | 43.30725 | 17.58197 | 36088 ft | 408 kts | 326° |
| 2026-04-28 20:27 | 43.35539 | 17.54165 | 36090 ft | 408 kts | 326° |
| 2026-04-28 20:27 | 43.40388 | 17.50097 | 36090 ft | 408 kts | 326° |
| 2026-04-28 20:28 | 43.45237 | 17.46039 | 36102 ft | 408 kts | 326° |
| 2026-04-28 20:28 | 43.50079 | 17.41968 | 36103 ft | 408 kts | 326° |
| 2026-04-28 20:29 | 43.54926 | 17.37890 | 36101 ft | 408 kts | 326° |
| 2026-04-28 20:29 | 43.59767 | 17.33797 | 36107 ft | 408 kts | 325° |
| 2026-04-28 20:30 | 43.64608 | 17.29695 | 36114 ft | 408 kts | 326° |
| 2026-04-28 20:30 | 43.69448 | 17.25598 | 36121 ft | 407 kts | 325° |
| 2026-04-28 20:31 | 43.74268 | 17.21511 | 36121 ft | 406 kts | 325° |
| 2026-04-28 20:31 | 43.79085 | 17.17421 | 36123 ft | 406 kts | 325° |
| 2026-04-28 20:32 | 43.83897 | 17.13317 | 36123 ft | 406 kts | 325° |
| 2026-04-28 20:32 | 43.88723 | 17.09204 | 36123 ft | 408 kts | 325° |
| 2026-04-28 20:33 | 43.93526 | 17.05054 | 36129 ft | 406 kts | 325° |
| 2026-04-28 20:33 | 43.98322 | 17.00930 | 36117 ft | 405 kts | 325° |
| 2026-04-28 20:34 | 44.03125 | 16.96814 | 36120 ft | 405 kts | 325° |
| 2026-04-28 20:34 | 44.07922 | 16.92689 | 36123 ft | 406 kts | 325° |
| 2026-04-28 20:35 | 44.12700 | 16.88595 | 36128 ft | 406 kts | 325° |
| 2026-04-28 20:35 | 44.17494 | 16.84471 | 36116 ft | 405 kts | 325° |
| 2026-04-28 20:36 | 44.22286 | 16.80331 | 36115 ft | 405 kts | 325° |
| 2026-04-28 20:36 | 44.27065 | 16.76178 | 36116 ft | 405 kts | 325° |
| 2026-04-28 20:37 | 44.31847 | 16.72032 | 36115 ft | 405 kts | 325° |
| 2026-04-28 20:37 | 44.36622 | 16.67877 | 36124 ft | 404 kts | 324° |
| 2026-04-28 20:38 | 44.41397 | 16.63712 | 36120 ft | 404 kts | 324° |
| 2026-04-28 20:38 | 44.46164 | 16.59537 | 36119 ft | 404 kts | 324° |
| 2026-04-28 20:39 | 44.50934 | 16.55357 | 36121 ft | 404 kts | 324° |
| 2026-04-28 20:39 | 44.55700 | 16.51178 | 36123 ft | 404 kts | 324° |
| 2026-04-28 20:40 | 44.60462 | 16.47005 | 36133 ft | 403 kts | 324° |
| 2026-04-28 20:40 | 44.65207 | 16.42832 | 36123 ft | 402 kts | 324° |
| 2026-04-28 20:41 | 44.69950 | 16.38652 | 36119 ft | 402 kts | 324° |
| 2026-04-28 20:41 | 44.74687 | 16.34458 | 36120 ft | 402 kts | 324° |
| 2026-04-28 20:42 | 44.79420 | 16.30260 | 36123 ft | 402 kts | 324° |
| 2026-04-28 20:42 | 44.84143 | 16.26069 | 36125 ft | 401 kts | 324° |
| 2026-04-28 20:43 | 44.88859 | 16.21876 | 36120 ft | 401 kts | 324° |
| 2026-04-28 20:43 | 44.93572 | 16.17680 | 36119 ft | 401 kts | 324° |
| 2026-04-28 20:44 | 44.98283 | 16.13469 | 36122 ft | 401 kts | 324° |
| 2026-04-28 20:44 | 45.02992 | 16.09255 | 36150 ft | 401 kts | 324° |
| 2026-04-28 20:45 | 45.07688 | 16.05049 | 36131 ft | 398 kts | 324° |
| 2026-04-28 20:45 | 45.12345 | 16.00883 | 36127 ft | 399 kts | 324° |
| 2026-04-28 20:46 | 45.17057 | 15.96640 | 36129 ft | 398 kts | 324° |
| 2026-04-28 20:46 | 45.21703 | 15.92442 | 36123 ft | 399 kts | 323° |
| 2026-04-28 20:47 | 45.26419 | 15.88188 | 36150 ft | 399 kts | 323° |
| 2026-04-28 20:47 | 45.31062 | 15.83977 | 36132 ft | 398 kts | 323° |
| 2026-04-28 20:48 | 45.35751 | 15.79709 | 36134 ft | 398 kts | 323° |
| 2026-04-28 20:48 | 45.40378 | 15.75480 | 36133 ft | 398 kts | 323° |
| 2026-04-28 20:49 | 45.45048 | 15.71253 | 36143 ft | 398 kts | 323° |
| 2026-04-28 20:49 | 45.49709 | 15.67008 | 36156 ft | 398 kts | 323° |
| 2026-04-28 20:50 | 45.53609 | 15.63446 | 36145 ft | 397 kts | 323° |
| 2026-04-28 20:50 | 45.58265 | 15.59183 | 36148 ft | 397 kts | 323° |
| 2026-04-28 20:51 | 45.62910 | 15.54921 | 36155 ft | 397 kts | 323° |
| 2026-04-28 20:51 | 45.67557 | 15.50653 | 36151 ft | 397 kts | 323° |
| 2026-04-28 20:52 | 45.72170 | 15.46402 | 36166 ft | 397 kts | 323° |
| 2026-04-28 20:52 | 45.76802 | 15.42102 | 36170 ft | 397 kts | 323° |
| 2026-04-28 20:53 | 45.83758 | 15.35691 | 36169 ft | 397 kts | 323° |
| 2026-04-28 20:53 | 45.88392 | 15.31390 | 36172 ft | 396 kts | 323° |
| 2026-04-28 20:54 | 45.93021 | 15.27091 | 36175 ft | 396 kts | 323° |
| 2026-04-28 20:54 | 45.97641 | 15.22789 | 36177 ft | 394 kts | 323° |
| 2026-04-28 20:55 | 46.02228 | 15.18496 | 36168 ft | 394 kts | 323° |
| 2026-04-28 20:55 | 46.06834 | 15.14197 | 36171 ft | 395 kts | 323° |
| 2026-04-28 20:56 | 46.11436 | 15.09885 | 36177 ft | 395 kts | 323° |
| 2026-04-28 20:56 | 46.16036 | 15.05565 | 36181 ft | 394 kts | 323° |
| 2026-04-28 20:57 | 46.20635 | 15.01246 | 36196 ft | 394 kts | 323° |
| 2026-04-28 20:57 | 46.25207 | 14.96924 | 36187 ft | 393 kts | 323° |
| 2026-04-28 20:58 | 46.29782 | 14.92586 | 36183 ft | 393 kts | 323° |
| 2026-04-28 20:58 | 46.34349 | 14.88261 | 36180 ft | 392 kts | 323° |
| 2026-04-28 20:59 | 46.38918 | 14.83927 | 36185 ft | 393 kts | 323° |
| 2026-04-28 20:59 | 46.43395 | 14.79668 | 36210 ft | 393 kts | 323° |
| 2026-04-28 21:00 | 46.47956 | 14.75330 | 36195 ft | 391 kts | 323° |
| 2026-04-28 21:00 | 46.52503 | 14.70987 | 36192 ft | 391 kts | 323° |
| 2026-04-28 21:01 | 46.57052 | 14.66633 | 36164 ft | 391 kts | 323° |
| 2026-04-28 21:01 | 46.61602 | 14.62285 | 36177 ft | 391 kts | 323° |
| 2026-04-28 21:02 | 46.66148 | 14.57925 | 36213 ft | 392 kts | 323° |
| 2026-04-28 21:02 | 46.70652 | 14.53599 | 36185 ft | 389 kts | 323° |
| 2026-04-28 21:03 | 46.75167 | 14.49243 | 36181 ft | 389 kts | 322° |
| 2026-04-28 21:03 | 46.79680 | 14.44889 | 36179 ft | 389 kts | 323° |
| 2026-04-28 21:04 | 46.84188 | 14.40523 | 36164 ft | 389 kts | 322° |
| 2026-04-28 21:04 | 46.88706 | 14.36129 | 36183 ft | 390 kts | 322° |
| 2026-04-28 21:05 | 46.93225 | 14.31733 | 36197 ft | 388 kts | 322° |
| 2026-04-28 21:05 | 46.97703 | 14.27364 | 36194 ft | 387 kts | 322° |
| 2026-04-28 21:06 | 47.02191 | 14.22976 | 36188 ft | 387 kts | 322° |
| 2026-04-28 21:06 | 47.06704 | 14.18565 | 36188 ft | 388 kts | 322° |
| 2026-04-28 21:07 | 47.11167 | 14.14217 | 36181 ft | 388 kts | 322° |
| 2026-04-28 21:07 | 47.15658 | 14.09798 | 36184 ft | 389 kts | 322° |
| 2026-04-28 21:08 | 47.20154 | 14.05379 | 36170 ft | 389 kts | 322° |
| 2026-04-28 21:08 | 47.24644 | 14.00959 | 36158 ft | 388 kts | 322° |
| 2026-04-28 21:09 | 47.29126 | 13.96523 | 36167 ft | 389 kts | 322° |
| 2026-04-28 21:09 | 47.33614 | 13.92075 | 36160 ft | 388 kts | 322° |
| 2026-04-28 21:10 | 47.38099 | 13.87633 | 36173 ft | 389 kts | 322° |
| 2026-04-28 21:10 | 47.42590 | 13.83166 | 36152 ft | 390 kts | 322° |
| 2026-04-28 21:11 | 47.47088 | 13.78685 | 36129 ft | 390 kts | 322° |
| 2026-04-28 21:11 | 47.51592 | 13.74188 | 36139 ft | 390 kts | 322° |
| 2026-04-28 21:12 | 47.56089 | 13.69681 | 36145 ft | 390 kts | 322° |
| 2026-04-28 21:12 | 47.60581 | 13.65171 | 36130 ft | 391 kts | 322° |
| 2026-04-28 21:13 | 47.65078 | 13.60653 | 36135 ft | 391 kts | 322° |
| 2026-04-28 21:13 | 47.69576 | 13.56129 | 36135 ft | 390 kts | 322° |
| 2026-04-28 21:14 | 47.74074 | 13.51591 | 36129 ft | 391 kts | 322° |
| 2026-04-28 21:14 | 47.78465 | 13.47145 | 36134 ft | 392 kts | 322° |
| 2026-04-28 21:15 | 47.82948 | 13.42611 | 36136 ft | 392 kts | 322° |
| 2026-04-28 21:15 | 47.87451 | 13.38039 | 36161 ft | 392 kts | 322° |
| 2026-04-28 21:16 | 47.91942 | 13.33470 | 36138 ft | 390 kts | 322° |
| 2026-04-28 21:16 | 47.96420 | 13.28895 | 36133 ft | 390 kts | 322° |
| 2026-04-28 21:17 | 48.00898 | 13.24324 | 36128 ft | 390 kts | 321° |
| 2026-04-28 21:17 | 48.05376 | 13.19734 | 36135 ft | 391 kts | 321° |
| 2026-04-28 21:18 | 48.09850 | 13.15115 | 36135 ft | 391 kts | 321° |
| 2026-04-28 21:18 | 48.14342 | 13.10511 | 36137 ft | 391 kts | 322° |
| 2026-04-28 21:19 | 48.18819 | 13.05897 | 36143 ft | 391 kts | 321° |
| 2026-04-28 21:19 | 48.23272 | 13.01228 | 36142 ft | 390 kts | 319° |
| 2026-04-28 21:20 | 48.27489 | 12.96123 | 36140 ft | 389 kts | 317° |
| 2026-04-28 21:20 | 48.31630 | 12.90914 | 36137 ft | 389 kts | 315° |
| 2026-04-28 21:21 | 48.35639 | 12.85454 | 36145 ft | 389 kts | 315° |
| 2026-04-28 21:21 | 48.39647 | 12.79996 | 36150 ft | 388 kts | 315° |
| 2026-04-28 21:22 | 48.43658 | 12.74547 | 36143 ft | 388 kts | 315° |
| 2026-04-28 21:22 | 48.46990 | 12.70024 | 36151 ft | 388 kts | 315° |
| 2026-04-28 21:23 | 48.51663 | 12.63636 | 36144 ft | 388 kts | 314° |
| 2026-04-28 21:23 | 48.55663 | 12.58162 | 36146 ft | 388 kts | 314° |
| 2026-04-28 21:24 | 48.59654 | 12.52684 | 36153 ft | 388 kts | 314° |
| 2026-04-28 21:24 | 48.63650 | 12.47203 | 36180 ft | 387 kts | 314° |
| 2026-04-28 21:25 | 48.67623 | 12.41733 | 36155 ft | 385 kts | 314° |
| 2026-04-28 21:25 | 48.71575 | 12.36270 | 36157 ft | 385 kts | 314° |
| 2026-04-28 21:26 | 48.75521 | 12.30791 | 36158 ft | 385 kts | 314° |
| 2026-04-28 21:26 | 48.79475 | 12.25325 | 36156 ft | 387 kts | 314° |
| 2026-04-28 21:27 | 48.83468 | 12.19783 | 36162 ft | 388 kts | 314° |
| 2026-04-28 21:27 | 48.87444 | 12.14246 | 36165 ft | 388 kts | 314° |
| 2026-04-28 21:28 | 48.91421 | 12.08693 | 36177 ft | 388 kts | 314° |
| 2026-04-28 21:28 | 48.95371 | 12.03167 | 36180 ft | 388 kts | 314° |
| 2026-04-28 21:29 | 48.99361 | 11.97559 | 36193 ft | 388 kts | 314° |
| 2026-04-28 21:29 | 49.03328 | 11.91978 | 36191 ft | 389 kts | 314° |
| 2026-04-28 21:30 | 49.07285 | 11.86412 | 36203 ft | 390 kts | 314° |
| 2026-04-28 21:30 | 49.11263 | 11.80799 | 36210 ft | 390 kts | 314° |
| 2026-04-28 21:31 | 49.15241 | 11.75172 | 36232 ft | 390 kts | 314° |
| 2026-04-28 21:31 | 49.19225 | 11.69525 | 36215 ft | 391 kts | 314° |
| 2026-04-28 21:32 | 49.23203 | 11.63871 | 36199 ft | 391 kts | 314° |
| 2026-04-28 21:32 | 49.27159 | 11.58220 | 36188 ft | 391 kts | 314° |
| 2026-04-28 21:33 | 49.31138 | 11.52545 | 36202 ft | 391 kts | 314° |
| 2026-04-28 21:33 | 49.35117 | 11.46842 | 36202 ft | 391 kts | 314° |
| 2026-04-28 21:34 | 49.39094 | 11.41136 | 36203 ft | 391 kts | 314° |
| 2026-04-28 21:34 | 49.42403 | 11.36379 | 36216 ft | 394 kts | 314° |
| 2026-04-28 21:35 | 49.46410 | 11.30604 | 36211 ft | 395 kts | 314° |
| 2026-04-28 21:35 | 49.50412 | 11.24827 | 36215 ft | 395 kts | 314° |
| 2026-04-28 21:36 | 49.54426 | 11.19010 | 36227 ft | 397 kts | 314° |
| 2026-04-28 21:36 | 49.58447 | 11.13180 | 36229 ft | 397 kts | 314° |
| 2026-04-28 21:37 | 49.62463 | 11.07335 | 36227 ft | 397 kts | 314° |
| 2026-04-28 21:37 | 49.66476 | 11.01478 | 36225 ft | 397 kts | 314° |
| 2026-04-28 21:38 | 49.70503 | 10.95595 | 36227 ft | 400 kts | 314° |
| 2026-04-28 21:38 | 49.74549 | 10.89665 | 36222 ft | 401 kts | 314° |
| 2026-04-28 21:39 | 49.78588 | 10.83724 | 36226 ft | 402 kts | 314° |
| 2026-04-28 21:39 | 49.82646 | 10.77770 | 36228 ft | 402 kts | 314° |
| 2026-04-28 21:40 | 49.86697 | 10.71798 | 36237 ft | 402 kts | 314° |
| 2026-04-28 21:40 | 49.90743 | 10.65794 | 36236 ft | 402 kts | 314° |
| 2026-04-28 21:41 | 49.94782 | 10.59803 | 36254 ft | 403 kts | 315° |
| 2026-04-28 21:41 | 49.98841 | 10.53772 | 36249 ft | 404 kts | 314° |
| 2026-04-28 21:42 | 50.02906 | 10.47717 | 36242 ft | 405 kts | 314° |
| 2026-04-28 21:42 | 50.06977 | 10.41633 | 36251 ft | 406 kts | 314° |
| 2026-04-28 21:43 | 50.11042 | 10.35540 | 36255 ft | 406 kts | 314° |
| 2026-04-28 21:43 | 50.15081 | 10.29475 | 36262 ft | 406 kts | 314° |
| 2026-04-28 21:44 | 50.19142 | 10.23362 | 36260 ft | 406 kts | 314° |
| 2026-04-28 21:44 | 50.23233 | 10.17193 | 36262 ft | 413 kts | 315° |
| 2026-04-28 21:45 | 50.27361 | 10.10938 | 36262 ft | 414 kts | 315° |
| 2026-04-28 21:45 | 50.31508 | 10.04648 | 36267 ft | 415 kts | 315° |
| 2026-04-28 21:46 | 50.35655 | 9.98352 | 36268 ft | 415 kts | 315° |
| 2026-04-28 21:46 | 50.39791 | 9.92047 | 36277 ft | 415 kts | 315° |
| 2026-04-28 21:47 | 50.43925 | 9.85727 | 36275 ft | 415 kts | 315° |
| 2026-04-28 21:47 | 50.48063 | 9.79393 | 36290 ft | 419 kts | 315° |
| 2026-04-28 21:48 | 50.52245 | 9.72953 | 36280 ft | 423 kts | 315° |
| 2026-04-28 21:48 | 50.56456 | 9.66459 | 36282 ft | 424 kts | 315° |
| 2026-04-28 21:49 | 50.60664 | 9.59970 | 36288 ft | 424 kts | 315° |
| 2026-04-28 21:49 | 50.64867 | 9.53463 | 36288 ft | 424 kts | 315° |
| 2026-04-28 21:50 | 50.69065 | 9.46951 | 36297 ft | 424 kts | 315° |
| 2026-04-28 21:50 | 50.73268 | 9.40400 | 36297 ft | 424 kts | 315° |
| 2026-04-28 21:51 | 50.77466 | 9.33838 | 36290 ft | 426 kts | 315° |
| 2026-04-28 21:51 | 50.81677 | 9.27241 | 36308 ft | 426 kts | 315° |
| 2026-04-28 21:52 | 50.85887 | 9.20645 | 36312 ft | 426 kts | 315° |
| 2026-04-28 21:52 | 50.90098 | 9.14021 | 36312 ft | 426 kts | 315° |
| 2026-04-28 21:53 | 50.94289 | 9.07400 | 36311 ft | 426 kts | 315° |
| 2026-04-28 21:53 | 50.98496 | 9.00742 | 36317 ft | 426 kts | 315° |
| 2026-04-28 21:54 | 51.02700 | 8.94076 | 36316 ft | 428 kts | 316° |
| 2026-04-28 21:54 | 51.06913 | 8.87361 | 36314 ft | 429 kts | 316° |
| 2026-04-28 21:55 | 51.11122 | 8.80645 | 36317 ft | 429 kts | 316° |
| 2026-04-28 21:55 | 51.15340 | 8.73917 | 36317 ft | 429 kts | 316° |
| 2026-04-28 21:56 | 51.19547 | 8.67171 | 36317 ft | 429 kts | 315° |
| 2026-04-28 21:56 | 51.23748 | 8.60417 | 36321 ft | 429 kts | 315° |
| 2026-04-28 21:57 | 51.27949 | 8.53640 | 36315 ft | 430 kts | 316° |
| 2026-04-28 21:57 | 51.32142 | 8.46866 | 36319 ft | 432 kts | 316° |
| 2026-04-28 21:58 | 51.36381 | 8.39990 | 36317 ft | 430 kts | 316° |
| 2026-04-28 21:58 | 51.40587 | 8.33138 | 36317 ft | 432 kts | 316° |
| 2026-04-28 21:59 | 51.44711 | 8.26156 | 36315 ft | 434 kts | 308° |
| 2026-04-28 22:00 | 51.49712 | 8.14018 | 36312 ft | 435 kts | 305° |
| 2026-04-28 22:00 | 51.53031 | 8.05891 | 36318 ft | 436 kts | 305° |
| 2026-04-28 22:01 | 51.56387 | 7.97779 | 36322 ft | 436 kts | 306° |
| 2026-04-28 22:01 | 51.59739 | 7.89658 | 36316 ft | 436 kts | 306° |
| 2026-04-28 22:02 | 51.63077 | 7.81501 | 36318 ft | 436 kts | 306° |
| 2026-04-28 22:02 | 51.66382 | 7.73381 | 36302 ft | 437 kts | 306° |
| 2026-04-28 22:03 | 51.69736 | 7.65137 | 36318 ft | 438 kts | 306° |
| 2026-04-28 22:03 | 51.73078 | 7.56913 | 36313 ft | 438 kts | 306° |
| 2026-04-28 22:04 | 51.76392 | 7.48730 | 36319 ft | 438 kts | 305° |
| 2026-04-28 22:04 | 51.79710 | 7.40486 | 36322 ft | 438 kts | 305° |
| 2026-04-28 22:05 | 51.83010 | 7.32297 | 35930 ft | 431 kts | 306° |
| 2026-04-28 22:05 | 51.84646 | 7.28250 | 35418 ft | 429 kts | 306° |
| 2026-04-28 22:05 | 51.86273 | 7.24209 | 34905 ft | 428 kts | 306° |
| 2026-04-28 22:05 | 51.87888 | 7.20183 | 34414 ft | 426 kts | 306° |
| 2026-04-28 22:06 | 51.89495 | 7.16167 | 33849 ft | 424 kts | 306° |
| 2026-04-28 22:06 | 51.91093 | 7.12166 | 33329 ft | 421 kts | 306° |
| 2026-04-28 22:06 | 51.92669 | 7.08197 | 32849 ft | 418 kts | 306° |
| 2026-04-28 22:06 | 51.94237 | 7.04242 | 32349 ft | 415 kts | 306° |
| 2026-04-28 22:07 | 51.95790 | 7.00319 | 31850 ft | 413 kts | 306° |
| 2026-04-28 22:07 | 51.97344 | 6.96419 | 31369 ft | 410 kts | 307° |
| 2026-04-28 22:07 | 51.98880 | 6.92536 | 30902 ft | 408 kts | 306° |
| 2026-04-28 22:07 | 52.00398 | 6.88673 | 30446 ft | 406 kts | 307° |
| 2026-04-28 22:08 | 52.01920 | 6.84813 | 29905 ft | 404 kts | 307° |
| 2026-04-28 22:08 | 52.03430 | 6.80972 | 29365 ft | 402 kts | 307° |
| 2026-04-28 22:08 | 52.04890 | 6.77117 | 28902 ft | 402 kts | 300° |
| 2026-04-28 22:08 | 52.05853 | 6.72826 | 28566 ft | 406 kts | 290° |
| 2026-04-28 22:09 | 52.06602 | 6.68407 | 28202 ft | 404 kts | 289° |
| 2026-04-28 22:09 | 52.07331 | 6.64026 | 27784 ft | 400 kts | 289° |
| 2026-04-28 22:09 | 52.08069 | 6.59691 | 27302 ft | 398 kts | 289° |
| 2026-04-28 22:09 | 52.08819 | 6.55352 | 26805 ft | 396 kts | 290° |
| 2026-04-28 22:10 | 52.09568 | 6.51048 | 26321 ft | 395 kts | 290° |
| 2026-04-28 22:10 | 52.10317 | 6.46758 | 25857 ft | 393 kts | 290° |
| 2026-04-28 22:10 | 52.11059 | 6.42495 | 25412 ft | 391 kts | 290° |
| 2026-04-28 22:10 | 52.11799 | 6.38247 | 24941 ft | 389 kts | 290° |
| 2026-04-28 22:11 | 52.12536 | 6.34027 | 24473 ft | 389 kts | 290° |
| 2026-04-28 22:11 | 52.13271 | 6.29791 | 24005 ft | 388 kts | 290° |
| 2026-04-28 22:11 | 52.14001 | 6.25564 | 23508 ft | 387 kts | 290° |
| 2026-04-28 22:11 | 52.14728 | 6.21369 | 23006 ft | 385 kts | 290° |
| 2026-04-28 22:12 | 52.15454 | 6.17179 | 22507 ft | 383 kts | 290° |
| 2026-04-28 22:12 | 52.16159 | 6.13060 | 22016 ft | 381 kts | 290° |
| 2026-04-28 22:12 | 52.16877 | 6.08870 | 21545 ft | 379 kts | 289° |
| 2026-04-28 22:12 | 52.17587 | 6.04744 | 21078 ft | 377 kts | 289° |
| 2026-04-28 22:13 | 52.18289 | 6.00647 | 20630 ft | 374 kts | 289° |
| 2026-04-28 22:13 | 52.18984 | 5.96574 | 20207 ft | 371 kts | 289° |
| 2026-04-28 22:13 | 52.19668 | 5.92541 | 19795 ft | 369 kts | 289° |
| 2026-04-28 22:13 | 52.20347 | 5.88514 | 19360 ft | 367 kts | 288° |
| 2026-04-28 22:14 | 52.21019 | 5.84510 | 18971 ft | 367 kts | 288° |
| 2026-04-28 22:14 | 52.21682 | 5.80548 | 18576 ft | 366 kts | 288° |
| 2026-04-28 22:14 | 52.22352 | 5.76550 | 18138 ft | 365 kts | 288° |
| 2026-04-28 22:14 | 52.23032 | 5.72523 | 17726 ft | 360 kts | 288° |
| 2026-04-28 22:15 | 52.23676 | 5.68669 | 17313 ft | 354 kts | 288° |
| 2026-04-28 22:15 | 52.24317 | 5.64824 | 16919 ft | 349 kts | 288° |
| 2026-04-28 22:15 | 52.24953 | 5.61029 | 16566 ft | 343 kts | 288° |
| 2026-04-28 22:15 | 52.25571 | 5.57315 | 16222 ft | 336 kts | 288° |
| 2026-04-28 22:16 | 52.26183 | 5.53653 | 15884 ft | 334 kts | 288° |
| 2026-04-28 22:16 | 52.26790 | 5.50001 | 15543 ft | 333 kts | 288° |
| 2026-04-28 22:16 | 52.27402 | 5.46299 | 15188 ft | 333 kts | 287° |
| 2026-04-28 22:16 | 52.27997 | 5.42700 | 14817 ft | 334 kts | 287° |
| 2026-04-28 22:17 | 52.28599 | 5.39037 | 14468 ft | 334 kts | 287° |
| 2026-04-28 22:17 | 52.29206 | 5.35333 | 14114 ft | 334 kts | 287° |
| 2026-04-28 22:17 | 52.29797 | 5.31727 | 13738 ft | 333 kts | 287° |
| 2026-04-28 22:17 | 52.30407 | 5.28015 | 13366 ft | 333 kts | 287° |
| 2026-04-28 22:18 | 52.30991 | 5.24417 | 13017 ft | 332 kts | 287° |
| 2026-04-28 22:18 | 52.31391 | 5.21959 | 12779 ft | 332 kts | 287° |
| 2026-04-28 22:18 | 52.32178 | 5.17143 | 12318 ft | 330 kts | 287° |
| 2026-04-28 22:18 | 52.32761 | 5.13512 | 11976 ft | 330 kts | 287° |
| 2026-04-28 22:19 | 52.33149 | 5.11065 | 11746 ft | 329 kts | 286° |
| 2026-04-28 22:19 | 52.33475 | 5.06142 | 11298 ft | 331 kts | 271° |
| 2026-04-28 22:19 | 52.33443 | 5.02376 | 10953 ft | 329 kts | 270° |
| 2026-04-28 22:19 | 52.33400 | 4.98691 | 10718 ft | 320 kts | 270° |
| 2026-04-28 22:20 | 52.33376 | 4.96251 | 10600 ft | 313 kts | 270° |
| 2026-04-28 22:20 | 52.33343 | 4.92754 | 10393 ft | 305 kts | 270° |
| 2026-04-28 22:20 | 52.33310 | 4.89284 | 10030 ft | 304 kts | 270° |
| 2026-04-28 22:20 | 52.33281 | 4.85819 | 9626 ft | 306 kts | 270° |
| 2026-04-28 22:21 | 52.33251 | 4.82349 | 9235 ft | 304 kts | 270° |
| 2026-04-28 22:21 | 52.33223 | 4.78938 | 8827 ft | 303 kts | 270° |
| 2026-04-28 22:21 | 52.33196 | 4.75503 | 8427 ft | 302 kts | 270° |
| 2026-04-28 22:21 | 52.33164 | 4.72029 | 8041 ft | 300 kts | 270° |
| 2026-04-28 22:22 | 52.33135 | 4.68677 | 7654 ft | 298 kts | 270° |
| 2026-04-28 22:22 | 52.33100 | 4.65295 | 7296 ft | 296 kts | 270° |
| 2026-04-28 22:22 | 52.33070 | 4.61947 | 6948 ft | 294 kts | 270° |
| 2026-04-28 22:22 | 52.33036 | 4.58590 | 6587 ft | 296 kts | 270° |
| 2026-04-28 22:23 | 52.32999 | 4.55221 | 6245 ft | 296 kts | 270° |
| 2026-04-28 22:23 | 52.32960 | 4.51869 | 5892 ft | 293 kts | 270° |
| 2026-04-28 22:23 | 52.32925 | 4.48549 | 5549 ft | 291 kts | 270° |
| 2026-04-28 22:23 | 52.32887 | 4.45259 | 5214 ft | 288 kts | 270° |
| 2026-04-28 22:24 | 52.32758 | 4.42003 | 4872 ft | 289 kts | 259° |
| 2026-04-28 22:24 | 52.31921 | 4.39065 | 4530 ft | 284 kts | 226° |
| 2026-04-28 22:24 | 52.30372 | 4.37290 | 4313 ft | 265 kts | 194° |
| 2026-04-28 22:24 | 52.28622 | 4.36795 | 4122 ft | 250 kts | 178° |
| 2026-04-28 22:25 | 52.26917 | 4.36660 | 3926 ft | 242 kts | 177° |
| 2026-04-28 22:25 | 52.25209 | 4.36630 | 4043 ft | 244 kts | 170° |
| 2026-04-28 22:25 | 52.23689 | 4.37515 | 3938 ft | 225 kts | 139° |
| 2026-04-28 22:25 | 52.22739 | 4.39370 | 3822 ft | 208 kts | 114° |
| 2026-04-28 22:26 | 52.22174 | 4.41485 | 3630 ft | 198 kts | 110° |
| 2026-04-28 22:26 | 52.21656 | 4.43495 | 3432 ft | 186 kts | 111° |
| 2026-04-28 22:26 | 52.21151 | 4.45363 | 3187 ft | 175 kts | 110° |
| 2026-04-28 22:26 | 52.20828 | 4.47234 | 2928 ft | 172 kts | 93° |
| 2026-04-28 22:27 | 52.20825 | 4.49180 | 2883 ft | 169 kts | 90° |
| 2026-04-28 22:27 | 52.20821 | 4.50981 | 2929 ft | 155 kts | 92° |
| 2026-04-28 22:27 | 52.20869 | 4.52737 | 2917 ft | 156 kts | 80° |
| 2026-04-28 22:27 | 52.21385 | 4.54318 | 2701 ft | 161 kts | 61° |
| 2026-04-28 22:28 | 52.22001 | 4.55825 | 2402 ft | 158 kts | 63° |
| 2026-04-28 22:28 | 52.22584 | 4.57330 | 2134 ft | 154 kts | 64° |
| 2026-04-28 22:28 | 52.23116 | 4.58692 | 2082 ft | 138 kts | 64° |
| 2026-04-28 22:28 | 52.23614 | 4.59997 | 2050 ft | 132 kts | 65° |
| 2026-04-28 22:29 | 52.24105 | 4.61265 | 1879 ft | 132 kts | 64° |
| 2026-04-28 22:29 | 52.24602 | 4.62544 | 1683 ft | 135 kts | 64° |
| 2026-04-28 22:29 | 52.25100 | 4.63836 | 1489 ft | 133 kts | 63° |
| 2026-04-28 22:29 | 52.25574 | 4.65055 | 1324 ft | 122 kts | 62° |
| 2026-04-28 22:30 | 52.26022 | 4.66231 | 1128 ft | 123 kts | 63° |
| 2026-04-28 22:30 | 52.26476 | 4.67409 | 962 ft | 122 kts | 62° |
| 2026-04-28 22:30 | 52.26929 | 4.68588 | 768 ft | 123 kts | 61° |
| 2026-04-28 22:30 | 52.27389 | 4.69789 | 608 ft | 127 kts | 59° |
| 2026-04-28 22:31 | 52.27872 | 4.71012 | 424 ft | 128 kts | 60° |
| 2026-04-28 22:31 | 52.28341 | 4.72250 | 279 ft | 128 kts | 59° |
| 2026-04-28 22:31 | 52.28811 | 4.73481 | 101 ft | 127 kts | 58° |
| 2026-04-28 22:31 | 52.29272 | 4.74669 | 6 ft | 116 kts | 58° |
| 2026-04-28 22:32 | 52.29594 | 4.75510 | 3 ft | 67 kts | 58° |
| 2026-04-28 22:32 | 52.29809 | 4.76065 | 1 ft | 53 kts | 58° |
| 2026-04-28 22:32 | 52.29949 | 4.76423 | 2 ft | 28 kts | 49° |
| 2026-04-28 22:32 | 52.30112 | 4.76612 | 4 ft | 28 kts | 27° |
| 2026-04-28 22:33 | 52.30243 | 4.76726 | 4 ft | 18 kts | 28° |
| 2026-04-28 22:33 | 52.30334 | 4.76876 | 4 ft | 16 kts | 58° |
| 2026-04-28 22:33 | 52.30381 | 4.77002 | 4 ft | 14 kts | 58° |
| 2026-04-28 22:33 | 52.30446 | 4.77030 | 4 ft | 12 kts | 331° |
| 2026-04-28 22:34 | 52.30503 | 4.76958 | 4 ft | 10 kts | 300° |
| 2026-04-28 22:34 | 52.30530 | 4.76861 | 4 ft | 6 kts | 294° |
| 2026-04-28 22:34 | 52.30539 | 4.76826 | 4 ft | 0 kts | 293° |
| 2026-04-28 22:34 | 52.30543 | 4.76810 | 4 ft | 2 kts | 293° |
| 2026-04-28 22:35 | 52.30544 | 4.76806 | 4 ft | 0 kts | 293° |